This is the latest recevied weather packets stored in our database for station/object SV9TNF-51. If no packets are shown the sender has not sent any weather packets the latest 10 day(s).
| Time | Temp. | Humidity | Pressure | Rain* | Wind** | Luminosity | Snow |
|---|---|---|---|---|---|---|---|
| 1787884609 | 26.67° C | 62% | 1011.9 hPa | 0 mm | 3.13 m/s, 34° | - | - |
| 1787884310 | 26.11° C | 64% | 1011.9 hPa | 0 mm | 3.58 m/s, 0° | - | - |
| 1787884009 | 26.11° C | 66% | 1011.9 hPa | 0 mm | 1.79 m/s, 160° | - | - |
| 1787883709 | 25.56° C | 68% | 1011.9 hPa | 0 mm | 1.79 m/s, 98° | - | - |
| 1787883409 | 25.56° C | 70% | 1011.9 hPa | 0 mm | 2.68 m/s, 88° | - | - |
| 1787883109 | 26.11° C | 71% | 1011.9 hPa | 0 mm | 1.34 m/s, 148° | - | - |
| 1787882809 | 26.67° C | 71% | 1011.9 hPa | 0 mm | 4.02 m/s, 236° | - | - |
| 1787882509 | 26.11° C | 69% | 1011.9 hPa | 0 mm | 3.13 m/s, 312° | - | - |
| 1787882216 | 26.11° C | 64% | 1011.9 hPa | 0 mm | 4.47 m/s, 330° | - | - |
| 1787881608 | 26.67° C | 64% | 1011.9 hPa | 0 mm | 4.92 m/s, 347° | - | - |
| 1787881308 | 26.67° C | 59% | 1011.9 hPa | 0 mm | 1.79 m/s, 90° | - | - |
| 1787881008 | 26.11° C | 59% | 1011.9 hPa | 0 mm | 1.34 m/s, 122° | - | - |
| 1787880708 | 26.11° C | 65% | 1011.9 hPa | 0 mm | 1.79 m/s, 88° | - | - |
| 1787880408 | 25.56° C | 66% | 1011.9 hPa | 0 mm | 5.36 m/s, 334° | - | - |
| 1787880108 | 25.56° C | 65% | 1012.2 hPa | 0 mm | 1.79 m/s, 83° | - | - |
| 1787879808 | 25.56° C | 64% | 1012.2 hPa | 0 mm | 0.45 m/s, 130° | - | - |
| 1787879508 | 25.56° C | 65% | 1012.2 hPa | 0 mm | 0.45 m/s, 135° | - | - |
| 1787879207 | 26.11° C | 69% | 1012.2 hPa | 0 mm | 0 m/s | - | - |
| 1787878907 | 26.11° C | 68% | 1012.2 hPa | 0 mm | 0 m/s | - | - |
| 1787878607 | 26.11° C | 68% | 1012.2 hPa | 0 mm | 0 m/s | - | - |
| 1787878307 | 26.11° C | 67% | 1012.2 hPa | 0 mm | 0 m/s | - | - |
| 1787878007 | 25.56° C | 65% | 1012.2 hPa | 0 mm | 1.79 m/s, 67° | - | - |
| 1787877707 | 25.56° C | 65% | 1012.2 hPa | 0 mm | 1.79 m/s, 110° | - | - |
| 1787877407 | 25.56° C | 65% | 1012.2 hPa | 0 mm | 7.15 m/s, 328° | - | - |
| 1787877107 | 26.11° C | 64% | 1012.2 hPa | 0 mm | 6.71 m/s, 352° | - | - |
* Rain latest hour (hover to see other rain measurements)
** Current wind speed in m/s (hover to see current wind gust speed)